sensor_id;sensor_type;location;lat;lon;timestamp;P1;durP1;ratioP1;P2;durP2;ratioP2
11263;SDS011;5689;48.798;9.070;2023-04-03T00:01:10;0.80;;;0.80;;
11263;SDS011;5689;48.798;9.070;2023-04-03T00:03:39;0.90;;;0.90;;
11263;SDS011;5689;48.798;9.070;2023-04-03T00:06:07;0.70;;;0.70;;
11263;SDS011;5689;48.798;9.070;2023-04-03T00:08:39;0.80;;;0.80;;
11263;SDS011;5689;48.798;9.070;2023-04-03T00:11:08;0.80;;;0.80;;
11263;SDS011;5689;48.798;9.070;2023-04-03T00:13:37;0.80;;;0.80;;
11263;SDS011;5689;48.798;9.070;2023-04-03T00:16:06;0.70;;;0.70;;
11263;SDS011;5689;48.798;9.070;2023-04-03T00:18:35;0.77;;;0.77;;
11263;SDS011;5689;48.798;9.070;2023-04-03T00:21:03;0.80;;;0.80;;
11263;SDS011;5689;48.798;9.070;2023-04-03T00:23:33;0.70;;;0.70;;
11263;SDS011;5689;48.798;9.070;2023-04-03T00:26:02;0.70;;;0.70;;
11263;SDS011;5689;48.798;9.070;2023-04-03T00:28:30;0.80;;;0.80;;
11263;SDS011;5689;48.798;9.070;2023-04-03T00:30:58;0.83;;;0.83;;
11263;SDS011;5689;48.798;9.070;2023-04-03T00:33:26;0.80;;;0.80;;
11263;SDS011;5689;48.798;9.070;2023-04-03T00:35:54;0.70;;;0.70;;
11263;SDS011;5689;48.798;9.070;2023-04-03T00:38:22;0.80;;;0.80;;
11263;SDS011;5689;48.798;9.070;2023-04-03T00:40:51;0.70;;;0.70;;
11263;SDS011;5689;48.798;9.070;2023-04-03T00:43:21;0.80;;;0.80;;
11263;SDS011;5689;48.798;9.070;2023-04-03T00:45:53;0.70;;;0.70;;
11263;SDS011;5689;48.798;9.070;2023-04-03T00:48:23;0.80;;;0.80;;
11263;SDS011;5689;48.798;9.070;2023-04-03T00:50:56;0.70;;;0.70;;
11263;SDS011;5689;48.798;9.070;2023-04-03T00:53:25;0.80;;;0.80;;
11263;SDS011;5689;48.798;9.070;2023-04-03T00:55:57;1.00;;;1.00;;
11263;SDS011;5689;48.798;9.070;2023-04-03T00:58:31;0.80;;;0.80;;
11263;SDS011;5689;48.798;9.070;2023-04-03T01:01:03;0.90;;;0.90;;
11263;SDS011;5689;48.798;9.070;2023-04-03T01:03:33;0.87;;;0.87;;
11263;SDS011;5689;48.798;9.070;2023-04-03T01:06:03;0.80;;;0.80;;
11263;SDS011;5689;48.798;9.070;2023-04-03T01:08:32;0.80;;;0.80;;
11263;SDS011;5689;48.798;9.070;2023-04-03T01:11:01;0.60;;;0.60;;
11263;SDS011;5689;48.798;9.070;2023-04-03T01:13:32;0.73;;;0.73;;
11263;SDS011;5689;48.798;9.070;2023-04-03T01:16:02;0.80;;;0.80;;
11263;SDS011;5689;48.798;9.070;2023-04-03T01:18:32;1.00;;;1.00;;
11263;SDS011;5689;48.798;9.070;2023-04-03T01:26:58;0.67;;;0.67;;
11263;SDS011;5689;48.798;9.070;2023-04-03T01:29:28;0.50;;;0.50;;
11263;SDS011;5689;48.798;9.070;2023-04-03T01:31:58;0.60;;;0.60;;
11263;SDS011;5689;48.798;9.070;2023-04-03T01:34:28;0.50;;;0.50;;
11263;SDS011;5689;48.798;9.070;2023-04-03T01:36:59;0.40;;;0.40;;
11263;SDS011;5689;48.798;9.070;2023-04-03T01:39:27;0.60;;;0.60;;
11263;SDS011;5689;48.798;9.070;2023-04-03T01:41:56;0.47;;;0.47;;
11263;SDS011;5689;48.798;9.070;2023-04-03T01:44:32;0.50;;;0.50;;
11263;SDS011;5689;48.798;9.070;2023-04-03T01:47:03;0.60;;;0.60;;
11263;SDS011;5689;48.798;9.070;2023-04-03T01:49:34;0.50;;;0.50;;
11263;SDS011;5689;48.798;9.070;2023-04-03T01:52:02;0.50;;;0.50;;
11263;SDS011;5689;48.798;9.070;2023-04-03T01:54:30;0.50;;;0.50;;
11263;SDS011;5689;48.798;9.070;2023-04-03T01:56:59;0.50;;;0.50;;
11263;SDS011;5689;48.798;9.070;2023-04-03T01:59:27;0.40;;;0.40;;
11263;SDS011;5689;48.798;9.070;2023-04-03T02:01:55;0.40;;;0.40;;
11263;SDS011;5689;48.798;9.070;2023-04-03T02:04:25;0.50;;;0.50;;
11263;SDS011;5689;48.798;9.070;2023-04-03T02:06:53;0.60;;;0.60;;
11263;SDS011;5689;48.798;9.070;2023-04-03T02:09:21;0.40;;;0.40;;
11263;SDS011;5689;48.798;9.070;2023-04-03T02:11:51;0.50;;;0.50;;
11263;SDS011;5689;48.798;9.070;2023-04-03T02:14:19;0.50;;;0.50;;
11263;SDS011;5689;48.798;9.070;2023-04-03T02:16:48;0.53;;;0.53;;
11263;SDS011;5689;48.798;9.070;2023-04-03T02:19:16;0.60;;;0.60;;
11263;SDS011;5689;48.798;9.070;2023-04-03T02:21:45;0.50;;;0.50;;
11263;SDS011;5689;48.798;9.070;2023-04-03T02:24:14;0.50;;;0.50;;
11263;SDS011;5689;48.798;9.070;2023-04-03T02:26:42;0.50;;;0.50;;
11263;SDS011;5689;48.798;9.070;2023-04-03T02:29:10;0.50;;;0.50;;
11263;SDS011;5689;48.798;9.070;2023-04-03T02:31:38;0.40;;;0.40;;
11263;SDS011;5689;48.798;9.070;2023-04-03T02:34:06;0.50;;;0.50;;
11263;SDS011;5689;48.798;9.070;2023-04-03T02:36:35;0.50;;;0.50;;
11263;SDS011;5689;48.798;9.070;2023-04-03T02:39:08;0.60;;;0.60;;
11263;SDS011;5689;48.798;9.070;2023-04-03T02:41:37;0.53;;;0.53;;
11263;SDS011;5689;48.798;9.070;2023-04-03T02:44:11;0.50;;;0.50;;
11263;SDS011;5689;48.798;9.070;2023-04-03T02:46:40;0.90;;;0.90;;
11263;SDS011;5689;48.798;9.070;2023-04-03T02:49:08;0.80;;;0.80;;
11263;SDS011;5689;48.798;9.070;2023-04-03T02:51:36;0.90;;;0.90;;
11263;SDS011;5689;48.798;9.070;2023-04-03T02:54:04;1.00;;;1.00;;
11263;SDS011;5689;48.798;9.070;2023-04-03T02:56:37;0.80;;;0.80;;
11263;SDS011;5689;48.798;9.070;2023-04-03T02:59:05;1.10;;;1.10;;
11263;SDS011;5689;48.798;9.070;2023-04-03T03:01:35;0.80;;;0.80;;
11263;SDS011;5689;48.798;9.070;2023-04-03T03:04:03;0.80;;;0.80;;
11263;SDS011;5689;48.798;9.070;2023-04-03T03:06:31;0.90;;;0.90;;
11263;SDS011;5689;48.798;9.070;2023-04-03T03:09:00;0.90;;;0.90;;
11263;SDS011;5689;48.798;9.070;2023-04-03T03:11:27;0.90;;;0.90;;
11263;SDS011;5689;48.798;9.070;2023-04-03T03:13:58;0.87;;;0.87;;
11263;SDS011;5689;48.798;9.070;2023-04-03T03:16:26;0.90;;;0.90;;
11263;SDS011;5689;48.798;9.070;2023-04-03T03:18:55;0.90;;;0.90;;
11263;SDS011;5689;48.798;9.070;2023-04-03T03:21:24;0.90;;;0.90;;
11263;SDS011;5689;48.798;9.070;2023-04-03T03:23:52;0.80;;;0.80;;
11263;SDS011;5689;48.798;9.070;2023-04-03T03:26:20;0.93;;;0.93;;
11263;SDS011;5689;48.798;9.070;2023-04-03T03:28:48;0.90;;;0.90;;
11263;SDS011;5689;48.798;9.070;2023-04-03T03:31:17;0.90;;;0.90;;
11263;SDS011;5689;48.798;9.070;2023-04-03T03:33:45;0.80;;;0.80;;
11263;SDS011;5689;48.798;9.070;2023-04-03T03:36:14;0.90;;;0.90;;
11263;SDS011;5689;48.798;9.070;2023-04-03T03:38:42;0.90;;;0.90;;
11263;SDS011;5689;48.798;9.070;2023-04-03T03:41:10;0.90;;;0.90;;
11263;SDS011;5689;48.798;9.070;2023-04-03T03:43:40;0.87;;;0.87;;
11263;SDS011;5689;48.798;9.070;2023-04-03T03:46:09;0.90;;;0.90;;
11263;SDS011;5689;48.798;9.070;2023-04-03T03:48:39;0.90;;;0.90;;
11263;SDS011;5689;48.798;9.070;2023-04-03T03:51:07;0.90;;;0.90;;
11263;SDS011;5689;48.798;9.070;2023-04-03T03:53:37;0.80;;;0.80;;
11263;SDS011;5689;48.798;9.070;2023-04-03T03:56:09;0.80;;;0.80;;
11263;SDS011;5689;48.798;9.070;2023-04-03T03:58:39;0.90;;;0.90;;
11263;SDS011;5689;48.798;9.070;2023-04-03T04:01:07;0.90;;;0.90;;
11263;SDS011;5689;48.798;9.070;2023-04-03T04:03:45;0.90;;;0.90;;
11263;SDS011;5689;48.798;9.070;2023-04-03T04:06:18;0.80;;;0.80;;
11263;SDS011;5689;48.798;9.070;2023-04-03T04:08:48;0.90;;;0.90;;
11263;SDS011;5689;48.798;9.070;2023-04-03T04:11:16;0.90;;;0.90;;
11263;SDS011;5689;48.798;9.070;2023-04-03T04:13:46;0.80;;;0.80;;
11263;SDS011;5689;48.798;9.070;2023-04-03T04:16:16;0.90;;;0.90;;
11263;SDS011;5689;48.798;9.070;2023-04-03T04:18:45;0.87;;;0.87;;
11263;SDS011;5689;48.798;9.070;2023-04-03T04:21:13;0.80;;;0.80;;
11263;SDS011;5689;48.798;9.070;2023-04-03T04:23:43;0.80;;;0.80;;
11263;SDS011;5689;48.798;9.070;2023-04-03T04:26:13;0.80;;;0.80;;
11263;SDS011;5689;48.798;9.070;2023-04-03T04:28:41;0.90;;;0.90;;
11263;SDS011;5689;48.798;9.070;2023-04-03T04:31:09;0.80;;;0.80;;
11263;SDS011;5689;48.798;9.070;2023-04-03T04:33:37;0.80;;;0.80;;
11263;SDS011;5689;48.798;9.070;2023-04-03T04:36:09;0.80;;;0.80;;
11263;SDS011;5689;48.798;9.070;2023-04-03T04:38:37;0.80;;;0.80;;
11263;SDS011;5689;48.798;9.070;2023-04-03T04:41:05;0.77;;;0.77;;
11263;SDS011;5689;48.798;9.070;2023-04-03T04:43:34;0.70;;;0.70;;
11263;SDS011;5689;48.798;9.070;2023-04-03T04:46:03;0.80;;;0.80;;
11263;SDS011;5689;48.798;9.070;2023-04-03T04:48:37;0.80;;;0.80;;
11263;SDS011;5689;48.798;9.070;2023-04-03T04:51:05;1.00;;;1.00;;
11263;SDS011;5689;48.798;9.070;2023-04-03T04:53:37;0.90;;;0.90;;
11263;SDS011;5689;48.798;9.070;2023-04-03T04:56:07;0.70;;;0.70;;
11263;SDS011;5689;48.798;9.070;2023-04-03T04:58:37;0.90;;;0.90;;
11263;SDS011;5689;48.798;9.070;2023-04-03T05:01:07;0.90;;;0.90;;
11263;SDS011;5689;48.798;9.070;2023-04-03T05:03:45;0.80;;;0.80;;
11263;SDS011;5689;48.798;9.070;2023-04-03T05:06:15;1.00;;;1.00;;
11263;SDS011;5689;48.798;9.070;2023-04-03T05:08:45;1.00;;;1.00;;
11263;SDS011;5689;48.798;9.070;2023-04-03T05:11:13;0.90;;;0.90;;
11263;SDS011;5689;48.798;9.070;2023-04-03T05:13:43;0.90;;;0.90;;
11263;SDS011;5689;48.798;9.070;2023-04-03T05:16:13;0.90;;;0.90;;
11263;SDS011;5689;48.798;9.070;2023-04-03T05:18:41;0.80;;;0.80;;
11263;SDS011;5689;48.798;9.070;2023-04-03T05:21:15;0.90;;;0.90;;
11263;SDS011;5689;48.798;9.070;2023-04-03T05:23:48;0.70;;;0.70;;
11263;SDS011;5689;48.798;9.070;2023-04-03T05:26:17;0.80;;;0.80;;
11263;SDS011;5689;48.798;9.070;2023-04-03T05:28:47;0.70;;;0.70;;
11263;SDS011;5689;48.798;9.070;2023-04-03T05:31:15;0.80;;;0.80;;
11263;SDS011;5689;48.798;9.070;2023-04-03T05:33:43;0.90;;;0.90;;
11263;SDS011;5689;48.798;9.070;2023-04-03T05:36:15;0.90;;;0.90;;
11263;SDS011;5689;48.798;9.070;2023-04-03T05:38:48;0.90;;;0.90;;
11263;SDS011;5689;48.798;9.070;2023-04-03T05:41:17;0.70;;;0.70;;
11263;SDS011;5689;48.798;9.070;2023-04-03T05:43:46;0.93;;;0.93;;
11263;SDS011;5689;48.798;9.070;2023-04-03T05:46:16;0.80;;;0.80;;
11263;SDS011;5689;48.798;9.070;2023-04-03T05:48:49;0.90;;;0.90;;
11263;SDS011;5689;48.798;9.070;2023-04-03T05:51:21;0.80;;;0.80;;
11263;SDS011;5689;48.798;9.070;2023-04-03T05:53:56;0.83;;;0.83;;
11263;SDS011;5689;48.798;9.070;2023-04-03T05:56:30;0.80;;;0.80;;
11263;SDS011;5689;48.798;9.070;2023-04-03T05:58:58;0.80;;;0.80;;
11263;SDS011;5689;48.798;9.070;2023-04-03T06:01:26;0.80;;;0.80;;
11263;SDS011;5689;48.798;9.070;2023-04-03T06:03:55;0.87;;;0.87;;
11263;SDS011;5689;48.798;9.070;2023-04-03T06:06:24;0.90;;;0.90;;
11263;SDS011;5689;48.798;9.070;2023-04-03T06:08:56;0.67;;;0.67;;
11263;SDS011;5689;48.798;9.070;2023-04-03T06:11:24;0.70;;;0.70;;
11263;SDS011;5689;48.798;9.070;2023-04-03T06:13:52;0.63;;;0.63;;
11263;SDS011;5689;48.798;9.070;2023-04-03T06:16:20;0.60;;;0.60;;
11263;SDS011;5689;48.798;9.070;2023-04-03T06:18:48;0.70;;;0.70;;
11263;SDS011;5689;48.798;9.070;2023-04-03T06:21:17;0.70;;;0.70;;
11263;SDS011;5689;48.798;9.070;2023-04-03T06:23:45;0.77;;;0.77;;
11263;SDS011;5689;48.798;9.070;2023-04-03T06:26:14;0.70;;;0.70;;
11263;SDS011;5689;48.798;9.070;2023-04-03T06:28:42;0.70;;;0.70;;
11263;SDS011;5689;48.798;9.070;2023-04-03T06:31:11;0.80;;;0.80;;
11263;SDS011;5689;48.798;9.070;2023-04-03T06:33:39;0.63;;;0.63;;
11263;SDS011;5689;48.798;9.070;2023-04-03T06:36:07;0.70;;;0.70;;
11263;SDS011;5689;48.798;9.070;2023-04-03T06:38:37;0.80;;;0.80;;
11263;SDS011;5689;48.798;9.070;2023-04-03T06:41:06;0.70;;;0.70;;
11263;SDS011;5689;48.798;9.070;2023-04-03T06:43:35;0.60;;;0.60;;
11263;SDS011;5689;48.798;9.070;2023-04-03T06:46:03;0.63;;;0.63;;
11263;SDS011;5689;48.798;9.070;2023-04-03T06:48:31;0.70;;;0.70;;
11263;SDS011;5689;48.798;9.070;2023-04-03T06:50:59;0.70;;;0.70;;
11263;SDS011;5689;48.798;9.070;2023-04-03T06:53:27;0.90;;;0.90;;
11263;SDS011;5689;48.798;9.070;2023-04-03T06:55:56;0.80;;;0.80;;
11263;SDS011;5689;48.798;9.070;2023-04-03T06:58:24;0.60;;;0.60;;
11263;SDS011;5689;48.798;9.070;2023-04-03T07:00:53;0.80;;;0.80;;
11263;SDS011;5689;48.798;9.070;2023-04-03T07:03:22;0.80;;;0.80;;
11263;SDS011;5689;48.798;9.070;2023-04-03T07:05:50;0.70;;;0.70;;
11263;SDS011;5689;48.798;9.070;2023-04-03T07:08:18;0.83;;;0.83;;
11263;SDS011;5689;48.798;9.070;2023-04-03T07:10:46;0.60;;;0.60;;
11263;SDS011;5689;48.798;9.070;2023-04-03T07:13:15;0.80;;;0.80;;
11263;SDS011;5689;48.798;9.070;2023-04-03T07:15:43;0.60;;;0.60;;
11263;SDS011;5689;48.798;9.070;2023-04-03T07:18:13;0.80;;;0.80;;
11263;SDS011;5689;48.798;9.070;2023-04-03T07:20:41;0.80;;;0.80;;
11263;SDS011;5689;48.798;9.070;2023-04-03T07:23:09;0.60;;;0.60;;
11263;SDS011;5689;48.798;9.070;2023-04-03T07:25:40;0.70;;;0.70;;
11263;SDS011;5689;48.798;9.070;2023-04-03T07:28:10;0.60;;;0.60;;
11263;SDS011;5689;48.798;9.070;2023-04-03T07:30:42;0.60;;;0.60;;
11263;SDS011;5689;48.798;9.070;2023-04-03T07:33:13;0.70;;;0.70;;
11263;SDS011;5689;48.798;9.070;2023-04-03T07:35:43;0.70;;;0.70;;
11263;SDS011;5689;48.798;9.070;2023-04-03T07:38:11;0.70;;;0.70;;
11263;SDS011;5689;48.798;9.070;2023-04-03T07:40:39;0.70;;;0.70;;
11263;SDS011;5689;48.798;9.070;2023-04-03T07:43:13;0.63;;;0.63;;
11263;SDS011;5689;48.798;9.070;2023-04-03T07:45:41;0.80;;;0.80;;
11263;SDS011;5689;48.798;9.070;2023-04-03T07:48:10;0.67;;;0.67;;
11263;SDS011;5689;48.798;9.070;2023-04-03T07:50:40;0.60;;;0.60;;
11263;SDS011;5689;48.798;9.070;2023-04-03T07:53:09;0.63;;;0.63;;
11263;SDS011;5689;48.798;9.070;2023-04-03T07:55:37;0.70;;;0.70;;
11263;SDS011;5689;48.798;9.070;2023-04-03T07:58:09;0.80;;;0.80;;
11263;SDS011;5689;48.798;9.070;2023-04-03T08:00:38;0.70;;;0.70;;
11263;SDS011;5689;48.798;9.070;2023-04-03T08:03:06;0.80;;;0.80;;
11263;SDS011;5689;48.798;9.070;2023-04-03T08:05:38;0.70;;;0.70;;
11263;SDS011;5689;48.798;9.070;2023-04-03T08:08:08;0.70;;;0.70;;
11263;SDS011;5689;48.798;9.070;2023-04-03T08:10:36;0.70;;;0.70;;
11263;SDS011;5689;48.798;9.070;2023-04-03T08:13:06;0.80;;;0.80;;
11263;SDS011;5689;48.798;9.070;2023-04-03T08:15:35;0.70;;;0.70;;
11263;SDS011;5689;48.798;9.070;2023-04-03T08:18:03;0.80;;;0.80;;
11263;SDS011;5689;48.798;9.070;2023-04-03T08:20:32;0.73;;;0.73;;
11263;SDS011;5689;48.798;9.070;2023-04-03T08:23:00;0.70;;;0.70;;
11263;SDS011;5689;48.798;9.070;2023-04-03T08:25:29;0.70;;;0.70;;
11263;SDS011;5689;48.798;9.070;2023-04-03T08:27:57;0.80;;;0.80;;
11263;SDS011;5689;48.798;9.070;2023-04-03T08:30:25;0.60;;;0.60;;
11263;SDS011;5689;48.798;9.070;2023-04-03T08:32:53;0.70;;;0.70;;
11263;SDS011;5689;48.798;9.070;2023-04-03T08:35:21;0.70;;;0.70;;
11263;SDS011;5689;48.798;9.070;2023-04-03T08:37:49;0.70;;;0.70;;
11263;SDS011;5689;48.798;9.070;2023-04-03T08:40:18;0.60;;;0.60;;
11263;SDS011;5689;48.798;9.070;2023-04-03T08:42:51;0.70;;;0.70;;
11263;SDS011;5689;48.798;9.070;2023-04-03T08:45:33;0.67;;;0.67;;
11263;SDS011;5689;48.798;9.070;2023-04-03T08:48:12;0.60;;;0.60;;
11263;SDS011;5689;48.798;9.070;2023-04-03T08:50:45;0.67;;;0.67;;
11263;SDS011;5689;48.798;9.070;2023-04-03T08:53:18;0.70;;;0.70;;
11263;SDS011;5689;48.798;9.070;2023-04-03T08:55:49;1.10;;;0.60;;
11263;SDS011;5689;48.798;9.070;2023-04-03T08:58:20;0.50;;;0.50;;
11263;SDS011;5689;48.798;9.070;2023-04-03T09:00:50;0.60;;;0.60;;
11263;SDS011;5689;48.798;9.070;2023-04-03T09:03:22;0.70;;;0.70;;
11263;SDS011;5689;48.798;9.070;2023-04-03T09:05:53;0.60;;;0.60;;
11263;SDS011;5689;48.798;9.070;2023-04-03T09:08:27;0.70;;;0.70;;
11263;SDS011;5689;48.798;9.070;2023-04-03T09:11:04;0.60;;;0.60;;
11263;SDS011;5689;48.798;9.070;2023-04-03T09:13:43;0.60;;;0.60;;
11263;SDS011;5689;48.798;9.070;2023-04-03T09:16:20;0.63;;;0.63;;
11263;SDS011;5689;48.798;9.070;2023-04-03T09:19:02;0.60;;;0.60;;
11263;SDS011;5689;48.798;9.070;2023-04-03T09:21:39;0.70;;;0.70;;
11263;SDS011;5689;48.798;9.070;2023-04-03T09:24:09;0.63;;;0.63;;
11263;SDS011;5689;48.798;9.070;2023-04-03T09:26:41;0.70;;;0.70;;
11263;SDS011;5689;48.798;9.070;2023-04-03T09:29:16;0.50;;;0.50;;
11263;SDS011;5689;48.798;9.070;2023-04-03T09:31:48;0.60;;;0.60;;
11263;SDS011;5689;48.798;9.070;2023-04-03T09:34:20;0.60;;;0.60;;
11263;SDS011;5689;48.798;9.070;2023-04-03T09:36:51;0.40;;;0.40;;
11263;SDS011;5689;48.798;9.070;2023-04-03T09:39:21;0.60;;;0.60;;
11263;SDS011;5689;48.798;9.070;2023-04-03T09:41:57;0.70;;;0.70;;
11263;SDS011;5689;48.798;9.070;2023-04-03T09:44:29;0.60;;;0.60;;
11263;SDS011;5689;48.798;9.070;2023-04-03T09:46:59;0.70;;;0.70;;
11263;SDS011;5689;48.798;9.070;2023-04-03T09:49:44;0.70;;;0.70;;
11263;SDS011;5689;48.798;9.070;2023-04-03T09:52:19;0.60;;;0.60;;
11263;SDS011;5689;48.798;9.070;2023-04-03T09:54:48;0.50;;;0.50;;
11263;SDS011;5689;48.798;9.070;2023-04-03T09:57:16;0.57;;;0.57;;
11263;SDS011;5689;48.798;9.070;2023-04-03T09:59:47;0.50;;;0.50;;
11263;SDS011;5689;48.798;9.070;2023-04-03T10:02:31;0.60;;;0.60;;
11263;SDS011;5689;48.798;9.070;2023-04-03T10:05:02;0.60;;;0.60;;
11263;SDS011;5689;48.798;9.070;2023-04-03T10:07:34;0.50;;;0.50;;
11263;SDS011;5689;48.798;9.070;2023-04-03T10:10:15;0.60;;;0.60;;
11263;SDS011;5689;48.798;9.070;2023-04-03T10:12:46;0.60;;;0.60;;
11263;SDS011;5689;48.798;9.070;2023-04-03T10:15:16;0.63;;;0.63;;
11263;SDS011;5689;48.798;9.070;2023-04-03T10:17:49;0.60;;;0.60;;
11263;SDS011;5689;48.798;9.070;2023-04-03T10:20:26;0.60;;;0.60;;
11263;SDS011;5689;48.798;9.070;2023-04-03T10:23:01;0.60;;;0.60;;
11263;SDS011;5689;48.798;9.070;2023-04-03T10:25:43;0.70;;;0.70;;
11263;SDS011;5689;48.798;9.070;2023-04-03T10:28:24;0.70;;;0.70;;
11263;SDS011;5689;48.798;9.070;2023-04-03T10:31:00;0.40;;;0.40;;
11263;SDS011;5689;48.798;9.070;2023-04-03T10:33:39;0.50;;;0.50;;
11263;SDS011;5689;48.798;9.070;2023-04-03T10:36:17;0.50;;;0.50;;
11263;SDS011;5689;48.798;9.070;2023-04-03T10:38:55;0.60;;;0.60;;
11263;SDS011;5689;48.798;9.070;2023-04-03T10:41:33;0.40;;;0.40;;
11263;SDS011;5689;48.798;9.070;2023-04-03T10:44:11;0.50;;;0.50;;
11263;SDS011;5689;48.798;9.070;2023-04-03T10:46:49;0.50;;;0.50;;
11263;SDS011;5689;48.798;9.070;2023-04-03T10:49:25;0.50;;;0.50;;
11263;SDS011;5689;48.798;9.070;2023-04-03T10:52:06;0.50;;;0.50;;
11263;SDS011;5689;48.798;9.070;2023-04-03T10:54:42;0.60;;;0.60;;
11263;SDS011;5689;48.798;9.070;2023-04-03T10:57:20;0.70;;;0.70;;
11263;SDS011;5689;48.798;9.070;2023-04-03T10:59:53;0.70;;;0.70;;
11263;SDS011;5689;48.798;9.070;2023-04-03T11:02:26;0.60;;;0.60;;
11263;SDS011;5689;48.798;9.070;2023-04-03T11:04:59;0.70;;;0.70;;
11263;SDS011;5689;48.798;9.070;2023-04-03T11:07:32;0.60;;;0.60;;
11263;SDS011;5689;48.798;9.070;2023-04-03T11:10:05;0.60;;;0.60;;
11263;SDS011;5689;48.798;9.070;2023-04-03T11:12:41;0.50;;;0.50;;
11263;SDS011;5689;48.798;9.070;2023-04-03T11:15:14;0.70;;;0.70;;
11263;SDS011;5689;48.798;9.070;2023-04-03T11:17:46;0.70;;;0.70;;
11263;SDS011;5689;48.798;9.070;2023-04-03T11:20:19;0.60;;;0.60;;
11263;SDS011;5689;48.798;9.070;2023-04-03T11:22:56;0.50;;;0.50;;
11263;SDS011;5689;48.798;9.070;2023-04-03T11:25:33;0.70;;;0.70;;
11263;SDS011;5689;48.798;9.070;2023-04-03T11:28:05;0.70;;;0.70;;
11263;SDS011;5689;48.798;9.070;2023-04-03T11:30:38;0.60;;;0.60;;
11263;SDS011;5689;48.798;9.070;2023-04-03T11:33:15;0.50;;;0.50;;
11263;SDS011;5689;48.798;9.070;2023-04-03T11:35:53;0.50;;;0.50;;
11263;SDS011;5689;48.798;9.070;2023-04-03T11:38:28;0.50;;;0.50;;
11263;SDS011;5689;48.798;9.070;2023-04-03T11:41:03;0.50;;;0.50;;
11263;SDS011;5689;48.798;9.070;2023-04-03T11:43:34;0.50;;;0.50;;
11263;SDS011;5689;48.798;9.070;2023-04-03T11:46:08;0.70;;;0.70;;
11263;SDS011;5689;48.798;9.070;2023-04-03T11:48:46;0.60;;;0.60;;
11263;SDS011;5689;48.798;9.070;2023-04-03T11:51:37;0.60;;;0.60;;
11263;SDS011;5689;48.798;9.070;2023-04-03T12:09:53;0.60;;;0.60;;
11263;SDS011;5689;48.798;9.070;2023-04-03T12:12:27;0.60;;;0.60;;
11263;SDS011;5689;48.798;9.070;2023-04-03T12:15:11;0.57;;;0.57;;
11263;SDS011;5689;48.798;9.070;2023-04-03T12:17:53;0.50;;;0.50;;
11263;SDS011;5689;48.798;9.070;2023-04-03T12:23:26;0.60;;;0.60;;
11263;SDS011;5689;48.798;9.070;2023-04-03T12:26:03;0.70;;;0.70;;
11263;SDS011;5689;48.798;9.070;2023-04-03T12:28:38;0.60;;;0.60;;
11263;SDS011;5689;48.798;9.070;2023-04-03T12:31:08;0.50;;;0.50;;
11263;SDS011;5689;48.798;9.070;2023-04-03T12:33:45;0.67;;;0.67;;
11263;SDS011;5689;48.798;9.070;2023-04-03T12:36:35;0.70;;;0.70;;
11263;SDS011;5689;48.798;9.070;2023-04-03T12:39:25;0.67;;;0.67;;
11263;SDS011;5689;48.798;9.070;2023-04-03T12:42:21;0.60;;;0.60;;
11263;SDS011;5689;48.798;9.070;2023-04-03T12:45:09;0.70;;;0.70;;
11263;SDS011;5689;48.798;9.070;2023-04-03T12:47:45;0.60;;;0.60;;
11263;SDS011;5689;48.798;9.070;2023-04-03T12:50:17;0.50;;;0.50;;
11263;SDS011;5689;48.798;9.070;2023-04-03T12:52:52;0.50;;;0.50;;
11263;SDS011;5689;48.798;9.070;2023-04-03T12:55:24;0.50;;;0.50;;
11263;SDS011;5689;48.798;9.070;2023-04-03T12:57:54;0.60;;;0.60;;
11263;SDS011;5689;48.798;9.070;2023-04-03T13:00:27;0.40;;;0.40;;
11263;SDS011;5689;48.798;9.070;2023-04-03T13:02:59;0.60;;;0.60;;
11263;SDS011;5689;48.798;9.070;2023-04-03T13:05:36;0.50;;;0.50;;
11263;SDS011;5689;48.798;9.070;2023-04-03T13:08:07;0.50;;;0.50;;
11263;SDS011;5689;48.798;9.070;2023-04-03T13:10:47;0.60;;;0.60;;
11263;SDS011;5689;48.798;9.070;2023-04-03T13:13:21;0.57;;;0.57;;
11263;SDS011;5689;48.798;9.070;2023-04-03T13:15:50;0.57;;;0.57;;
11263;SDS011;5689;48.798;9.070;2023-04-03T13:18:30;0.50;;;0.50;;
11263;SDS011;5689;48.798;9.070;2023-04-03T13:21:03;0.60;;;0.60;;
11263;SDS011;5689;48.798;9.070;2023-04-03T13:23:35;0.60;;;0.60;;
11263;SDS011;5689;48.798;9.070;2023-04-03T13:26:07;0.70;;;0.70;;
11263;SDS011;5689;48.798;9.070;2023-04-03T13:28:38;0.50;;;0.50;;
11263;SDS011;5689;48.798;9.070;2023-04-03T13:31:13;0.50;;;0.50;;
11263;SDS011;5689;48.798;9.070;2023-04-03T13:33:52;0.40;;;0.40;;
11263;SDS011;5689;48.798;9.070;2023-04-03T13:36:32;0.40;;;0.40;;
11263;SDS011;5689;48.798;9.070;2023-04-03T13:39:03;0.50;;;0.50;;
11263;SDS011;5689;48.798;9.070;2023-04-03T13:41:34;0.60;;;0.60;;
11263;SDS011;5689;48.798;9.070;2023-04-03T13:44:25;0.47;;;0.47;;
11263;SDS011;5689;48.798;9.070;2023-04-03T13:47:00;0.50;;;0.50;;
11263;SDS011;5689;48.798;9.070;2023-04-03T13:49:46;0.40;;;0.40;;
11263;SDS011;5689;48.798;9.070;2023-04-03T13:52:30;0.47;;;0.47;;
11263;SDS011;5689;48.798;9.070;2023-04-03T13:55:03;0.40;;;0.40;;
11263;SDS011;5689;48.798;9.070;2023-04-03T13:57:48;0.33;;;0.33;;
11263;SDS011;5689;48.798;9.070;2023-04-03T14:00:21;0.50;;;0.50;;
11263;SDS011;5689;48.798;9.070;2023-04-03T14:02:56;0.60;;;0.60;;
11263;SDS011;5689;48.798;9.070;2023-04-03T14:05:24;0.40;;;0.40;;
11263;SDS011;5689;48.798;9.070;2023-04-03T14:07:53;0.60;;;0.60;;
11263;SDS011;5689;48.798;9.070;2023-04-03T14:10:22;0.60;;;0.60;;
11263;SDS011;5689;48.798;9.070;2023-04-03T14:12:50;0.50;;;0.50;;
11263;SDS011;5689;48.798;9.070;2023-04-03T14:15:18;0.50;;;0.50;;
11263;SDS011;5689;48.798;9.070;2023-04-03T14:17:51;0.47;;;0.47;;
11263;SDS011;5689;48.798;9.070;2023-04-03T14:20:20;0.50;;;0.50;;
11263;SDS011;5689;48.798;9.070;2023-04-03T14:22:51;0.60;;;0.60;;
11263;SDS011;5689;48.798;9.070;2023-04-03T14:25:20;0.50;;;0.50;;
11263;SDS011;5689;48.798;9.070;2023-04-03T14:27:50;0.60;;;0.60;;
11263;SDS011;5689;48.798;9.070;2023-04-03T14:30:21;0.60;;;0.60;;
11263;SDS011;5689;48.798;9.070;2023-04-03T14:32:53;0.70;;;0.70;;
11263;SDS011;5689;48.798;9.070;2023-04-03T14:35:21;0.60;;;0.60;;
11263;SDS011;5689;48.798;9.070;2023-04-03T14:37:51;0.50;;;0.50;;
11263;SDS011;5689;48.798;9.070;2023-04-03T14:40:23;0.57;;;0.57;;
11263;SDS011;5689;48.798;9.070;2023-04-03T14:42:53;0.50;;;0.50;;
11263;SDS011;5689;48.798;9.070;2023-04-03T14:45:24;0.50;;;0.50;;
11263;SDS011;5689;48.798;9.070;2023-04-03T14:47:53;0.60;;;0.60;;
11263;SDS011;5689;48.798;9.070;2023-04-03T14:50:24;0.60;;;0.60;;
11263;SDS011;5689;48.798;9.070;2023-04-03T14:52:55;0.40;;;0.40;;
11263;SDS011;5689;48.798;9.070;2023-04-03T14:55:24;0.50;;;0.50;;
11263;SDS011;5689;48.798;9.070;2023-04-03T14:57:53;0.40;;;0.40;;
11263;SDS011;5689;48.798;9.070;2023-04-03T15:00:21;0.40;;;0.40;;
11263;SDS011;5689;48.798;9.070;2023-04-03T15:02:51;0.50;;;0.50;;
11263;SDS011;5689;48.798;9.070;2023-04-03T15:05:19;0.40;;;0.40;;
11263;SDS011;5689;48.798;9.070;2023-04-03T15:07:48;0.40;;;0.40;;
11263;SDS011;5689;48.798;9.070;2023-04-03T15:10:20;0.30;;;0.30;;
11263;SDS011;5689;48.798;9.070;2023-04-03T15:12:51;0.20;;;0.20;;
11263;SDS011;5689;48.798;9.070;2023-04-03T15:15:19;0.30;;;0.30;;
11263;SDS011;5689;48.798;9.070;2023-04-03T15:17:50;0.40;;;0.40;;
11263;SDS011;5689;48.798;9.070;2023-04-03T15:20:21;0.40;;;0.40;;
11263;SDS011;5689;48.798;9.070;2023-04-03T15:22:51;0.40;;;0.40;;
11263;SDS011;5689;48.798;9.070;2023-04-03T15:25:20;0.50;;;0.50;;
11263;SDS011;5689;48.798;9.070;2023-04-03T15:27:48;0.40;;;0.40;;
11263;SDS011;5689;48.798;9.070;2023-04-03T15:30:17;0.50;;;0.50;;
11263;SDS011;5689;48.798;9.070;2023-04-03T15:32:45;0.57;;;0.57;;
11263;SDS011;5689;48.798;9.070;2023-04-03T15:35:16;0.50;;;0.50;;
11263;SDS011;5689;48.798;9.070;2023-04-03T15:37:44;0.50;;;0.50;;
11263;SDS011;5689;48.798;9.070;2023-04-03T15:40:14;0.50;;;0.50;;
11263;SDS011;5689;48.798;9.070;2023-04-03T15:42:42;0.60;;;0.60;;
11263;SDS011;5689;48.798;9.070;2023-04-03T15:45:10;0.60;;;0.60;;
11263;SDS011;5689;48.798;9.070;2023-04-03T15:47:38;0.60;;;0.60;;
11263;SDS011;5689;48.798;9.070;2023-04-03T15:50:06;0.53;;;0.53;;